Time;durP1;ratioP1;P1;durP2;ratioP2;P2;SDS_P1;SDS_P2;PMS_P1;PMS_P2;Temp;Humidity;BMP_temperature;BMP_pressure;BME280_temperature;BME280_humidity;BME280_pressure;Samples;Min_cycle;Max_cycle;Signal;HPM_P1;HPM_P2
2023/03/03 00:01:12;;;;;;;12.23;7.75;;;21.50;99.90;;;;;;5015997;28;20053;-54
2023/03/03 00:03:38;;;;;;;13.25;7.80;;;21.50;99.90;;;;;;5034071;28;20022;-54
2023/03/03 00:06:08;;;;;;;11.82;7.70;;;21.50;99.90;;;;;;5034083;28;20022;-54
2023/03/03 00:08:34;;;;;;;11.07;7.50;;;21.50;99.90;;;;;;5033098;28;20053;-55
2023/03/03 00:11:02;;;;;;;12.55;7.88;;;21.50;99.90;;;;;;5034233;28;20431;-55
2023/03/03 00:13:29;;;;;;;;;;;21.40;99.90;;;;;;5034606;28;20017;-54
2023/03/03 00:16:28;;;;;;;11.80;8.05;;;21.50;99.90;;;;;;5034036;28;19905;-54
2023/03/03 00:18:55;;;;;;;12.57;8.27;;;21.40;99.90;;;;;;5016475;28;20094;-54
2023/03/03 00:21:28;;;;;;;11.80;7.78;;;21.40;99.90;;;;;;5033921;28;20025;-55
2023/03/03 00:24:10;;;;;;;13.07;8.13;;;21.40;99.90;;;;;;5033534;28;20112;-55
2023/03/03 00:26:39;;;;;;;13.40;8.00;;;21.40;99.90;;;;;;5033358;28;20479;-55
2023/03/03 00:29:31;;;;;;;12.45;8.57;;;21.40;99.90;;;;;;5033674;28;20032;-55
2023/03/03 00:32:45;;;;;;;13.40;8.50;;;21.30;99.90;;;;;;5033459;28;20037;-55
2023/03/03 00:35:38;;;;;;;11.38;8.10;;;21.30;99.90;;;;;;5033718;28;20076;-56
2023/03/03 00:38:18;;;;;;;12.13;7.55;;;21.30;99.90;;;;;;5029556;28;20041;-55
2023/03/03 00:40:45;;;;;;;14.65;8.13;;;21.30;99.90;;;;;;5033689;28;20105;-55
2023/03/03 00:43:23;;;;;;;11.90;7.95;;;21.30;99.90;;;;;;5033465;28;20028;-55
2023/03/03 00:45:51;;;;;;;13.45;9.25;;;21.20;99.90;;;;;;5033543;28;20029;-55
2023/03/03 00:48:30;;;;;;;14.18;8.38;;;21.20;99.90;;;;;;5033321;28;20034;-56
2023/03/03 00:51:01;;;;;;;13.45;8.75;;;21.20;99.90;;;;;;5033084;28;20120;-55
2023/03/03 00:53:30;;;;;;;13.95;8.95;;;21.20;99.90;;;;;;5033024;28;20425;-54
2023/03/03 00:55:57;;;;;;;13.70;9.23;;;21.20;99.90;;;;;;5015557;28;20446;-54
2023/03/03 00:58:24;;;;;;;15.15;9.05;;;21.20;99.90;;;;;;5033315;28;20026;-55
2023/03/03 01:00:52;;;;;;;12.38;8.15;;;21.10;99.90;;;;;;5048392;23;20053;-63
2023/03/03 01:03:23;;;;;;;11.57;8.07;;;21.20;99.90;;;;;;5033029;28;20034;-63
2023/03/03 01:05:50;;;;;;;13.45;8.50;;;21.10;99.90;;;;;;5033134;28;20030;-63
2023/03/03 01:08:18;;;;;;;13.03;8.63;;;21.10;99.90;;;;;;5032980;28;20429;-64
2023/03/03 01:10:56;;;;;;;12.57;8.20;;;21.10;99.90;;;;;;5032924;28;20380;-64
2023/03/03 01:13:26;;;;;;;14.10;9.43;;;21.10;99.90;;;;;;5032906;28;20036;-63
2023/03/03 01:15:52;;;;;;;13.63;8.45;;;21.10;99.90;;;;;;5033255;28;20395;-64
2023/03/03 01:18:18;;;;;;;15.68;9.05;;;21.00;99.90;;;;;;5032723;28;20022;-63
2023/03/03 01:20:43;;;;;;;14.63;8.77;;;21.00;99.90;;;;;;5032471;28;20029;-63
2023/03/03 01:23:09;;;;;;;12.75;9.00;;;21.00;99.90;;;;;;5032955;28;20391;-63
2023/03/03 01:25:36;;;;;;;13.77;8.73;;;21.00;99.90;;;;;;5033055;28;20374;-63
2023/03/03 01:28:02;;;;;;;13.35;8.60;;;21.00;99.90;;;;;;5032885;28;20033;-63
2023/03/03 01:30:28;;;;;;;15.43;8.73;;;21.00;99.90;;;;;;5032522;28;20048;-63
2023/03/03 01:32:53;;;;;;;13.73;9.27;;;21.00;99.90;;;;;;5032579;28;20479;-64
2023/03/03 01:35:19;;;;;;;15.40;9.27;;;21.00;99.90;;;;;;5015046;28;20108;-63
2023/03/03 01:37:45;;;;;;;15.05;10.05;;;20.90;99.90;;;;;;5032541;28;20092;-63
2023/03/03 01:40:18;;;;;;;14.52;8.82;;;20.90;99.90;;;;;;5032558;28;20026;-63
2023/03/03 01:42:44;;;;;;;12.65;8.88;;;20.90;99.90;;;;;;5032414;28;20491;-63
2023/03/03 01:45:28;;;;;;;14.98;9.40;;;20.90;99.90;;;;;;5032353;28;20080;-65
2023/03/03 01:48:03;;;;;;;11.10;8.20;;;20.90;99.90;;;;;;5032355;28;20033;-63
2023/03/03 01:50:41;;;;;;;13.85;8.85;;;20.90;99.90;;;;;;5032187;28;20030;-64
2023/03/03 01:53:13;;;;;;;14.82;9.18;;;20.80;99.90;;;;;;5032379;28;20032;-63
2023/03/03 01:55:41;;;;;;;13.38;8.95;;;20.90;99.90;;;;;;5032249;28;20117;-63
2023/03/03 01:58:20;;;;;;;13.15;8.95;;;20.80;99.90;;;;;;5032473;28;20033;-63
2023/03/03 02:00:50;;;;;;;15.27;9.65;;;20.80;99.90;;;;;;5032640;28;20470;-63
2023/03/03 02:03:18;;;;;;;13.95;8.63;;;20.80;99.90;;;;;;5032233;28;20105;-62
2023/03/03 02:05:44;;;;;;;14.68;9.23;;;20.80;99.90;;;;;;5032213;28;20018;-63
2023/03/03 02:08:14;;;;;;;12.80;8.57;;;20.80;99.90;;;;;;5032287;28;20434;-63
2023/03/03 02:10:40;;;;;;;13.50;8.95;;;20.70;99.90;;;;;;5014093;28;20435;-65
2023/03/03 02:13:06;;;;;;;14.05;8.82;;;20.70;99.90;;;;;;5032421;28;20047;-63
2023/03/03 02:15:37;;;;;;;13.27;9.13;;;20.70;99.90;;;;;;5032134;28;20059;-63
2023/03/03 02:18:09;;;;;;;14.95;9.35;;;20.70;99.90;;;;;;5032091;28;20028;-63
2023/03/03 02:21:02;;;;;;;12.60;8.50;;;20.70;99.90;;;;;;5032212;28;20022;-62
2023/03/03 02:23:49;;;;;;;15.50;9.00;;;20.70;99.90;;;;;;5031995;28;20029;-63
2023/03/03 02:26:23;;;;;;;14.15;9.07;;;20.70;99.90;;;;;;5032176;28;20042;-62
2023/03/03 02:28:50;;;;;;;14.23;9.23;;;20.60;99.90;;;;;;5032796;28;20029;-62
2023/03/03 02:31:19;;;;;;;15.40;9.35;;;20.60;99.90;;;;;;5033087;28;20045;-63
2023/03/03 02:33:47;;;;;;;12.10;8.18;;;20.60;99.90;;;;;;5035987;28;20115;-63
2023/03/03 02:36:33;;;;;;;12.95;8.63;;;20.60;99.90;;;;;;5018064;28;20053;-64
2023/03/03 02:39:21;;;;;;;11.85;8.23;;;20.60;99.90;;;;;;5035953;28;20160;-62
2023/03/03 02:42:17;;;;;;;12.68;8.43;;;20.50;99.90;;;;;;5035959;28;20025;-62
2023/03/03 02:44:43;;;;;;;14.37;8.93;;;20.60;99.90;;;;;;5036265;28;20044;-62
2023/03/03 02:47:09;;;;;;;14.77;8.75;;;20.60;99.90;;;;;;5035895;28;20025;-62
2023/03/03 02:49:36;;;;;;;14.38;8.35;;;20.50;99.90;;;;;;5016309;28;20025;-62
2023/03/03 02:52:04;;;;;;;12.80;8.63;;;20.50;99.90;;;;;;5033621;28;20541;-63
2023/03/03 02:54:30;;;;;;;14.48;8.60;;;20.50;99.90;;;;;;5033469;28;20100;-62
2023/03/03 02:56:57;;;;;;;12.73;8.68;;;20.50;99.90;;;;;;5015830;28;20548;-62
2023/03/03 02:59:23;;;;;;;12.60;8.63;;;20.50;99.90;;;;;;5049322;23;20029;-47
2023/03/03 03:01:49;;;;;;;12.77;7.97;;;20.40;99.90;;;;;;5034204;28;20033;-48
2023/03/03 03:04:26;;;;;;;12.43;7.43;;;20.40;99.90;;;;;;5034211;28;20036;-47
2023/03/03 03:06:53;;;;;;;10.85;7.60;;;20.40;99.90;;;;;;5034236;28;20329;-48
2023/03/03 03:09:22;;;;;;;12.55;7.78;;;20.40;99.90;;;;;;5034248;28;20136;-49
2023/03/03 03:11:48;;;;;;;11.88;7.30;;;20.40;99.90;;;;;;5034120;28;20460;-47
2023/03/03 03:14:14;;;;;;;9.10;6.78;;;20.40;99.90;;;;;;5016431;28;20064;-48
2023/03/03 03:16:41;;;;;;;11.13;7.55;;;20.40;99.90;;;;;;5034362;28;20033;-47
2023/03/03 03:19:07;;;;;;;11.43;7.47;;;20.40;99.90;;;;;;5016186;28;20029;-48
2023/03/03 03:21:33;;;;;;;10.98;6.85;;;20.30;99.90;;;;;;5034237;28;20068;-47
2023/03/03 03:23:59;;;;;;;11.32;6.63;;;20.40;99.90;;;;;;5032611;28;20022;-48
2023/03/03 03:26:26;;;;;;;12.43;7.78;;;20.30;99.90;;;;;;5034076;28;20084;-48
2023/03/03 03:28:52;;;;;;;10.10;6.47;;;20.30;99.90;;;;;;5031788;28;20025;-48
2023/03/03 03:31:19;;;;;;;15.15;6.80;;;20.30;99.90;;;;;;5015725;28;20041;-48
2023/03/03 03:33:45;;;;;;;9.70;6.72;;;20.30;99.90;;;;;;5016987;28;20479;-47
2023/03/03 03:36:11;;;;;;;9.90;6.65;;;20.30;99.90;;;;;;5034933;28;20033;-48
2023/03/03 03:38:37;;;;;;;9.43;6.15;;;20.30;99.90;;;;;;5034699;28;20029;-48
2023/03/03 03:41:05;;;;;;;9.85;6.60;;;20.30;99.90;;;;;;5034668;28;20475;-47
2023/03/03 03:43:30;;;;;;;10.52;6.60;;;20.30;99.90;;;;;;5034439;28;20032;-48
2023/03/03 03:45:56;;;;;;;9.20;6.35;;;20.30;99.90;;;;;;5034547;28;20403;-47
2023/03/03 03:48:22;;;;;;;9.80;6.40;;;20.30;99.90;;;;;;5034681;28;20034;-48
2023/03/03 03:50:48;;;;;;;9.10;6.03;;;20.20;99.90;;;;;;5034449;28;20041;-47
2023/03/03 03:53:15;;;;;;;10.15;5.63;;;20.20;99.90;;;;;;5034546;28;20025;-47
2023/03/03 03:55:40;;;;;;;9.95;5.80;;;20.20;99.90;;;;;;5034660;28;20049;-48
2023/03/03 03:58:06;;;;;;;9.20;5.53;;;20.20;99.90;;;;;;5034299;28;20456;-48
2023/03/03 04:00:32;;;;;;;9.07;5.85;;;20.20;99.90;;;;;;5031329;23;20050;-63
2023/03/03 04:02:58;;;;;;;7.47;5.40;;;20.20;99.90;;;;;;5034341;28;20033;-63
2023/03/03 04:05:23;;;;;;;10.75;6.78;;;20.20;99.90;;;;;;5016510;28;20044;-63
2023/03/03 04:07:49;;;;;;;9.63;5.70;;;20.20;99.90;;;;;;5034295;28;20417;-62
2023/03/03 04:10:16;;;;;;;8.27;5.68;;;20.10;99.90;;;;;;5034180;28;20033;-62
2023/03/03 04:12:42;;;;;;;9.73;5.72;;;20.10;99.90;;;;;;5034512;28;20087;-62
2023/03/03 04:15:10;;;;;;;9.38;5.47;;;20.10;99.90;;;;;;5034138;28;20025;-62
2023/03/03 04:17:35;;;;;;;;;;;20.10;99.90;;;;;;5034445;28;20025;-62
2023/03/03 04:20:02;;;;;;;6.55;4.47;;;20.10;99.90;;;;;;5034040;28;19905;-63
2023/03/03 04:22:32;;;;;;;8.90;5.60;;;20.10;99.90;;;;;;5033932;28;20029;-64
2023/03/03 04:24:59;;;;;;;7.50;5.38;;;20.10;99.90;;;;;;5033959;28;20037;-64
2023/03/03 04:27:25;;;;;;;7.80;4.87;;;20.10;99.90;;;;;;5033941;28;20026;-63
2023/03/03 04:29:51;;;;;;;7.03;5.38;;;20.10;99.90;;;;;;5033813;28;20032;-63
2023/03/03 04:32:17;;;;;;;7.05;4.72;;;20.10;99.90;;;;;;5015762;28;20039;-62
2023/03/03 04:34:43;;;;;;;7.85;4.88;;;20.10;99.90;;;;;;5034018;28;20022;-62
2023/03/03 04:37:09;;;;;;;7.82;4.78;;;20.00;99.90;;;;;;5033720;28;20022;-63
2023/03/03 04:39:35;;;;;;;6.90;4.50;;;20.00;99.90;;;;;;5033684;28;20117;-63
2023/03/03 04:42:01;;;;;;;8.98;5.28;;;20.00;99.90;;;;;;5033555;28;20052;-62
2023/03/03 04:44:26;;;;;;;7.13;4.97;;;20.00;99.90;;;;;;5033648;28;20487;-63
2023/03/03 04:46:52;;;;;;;8.73;4.80;;;20.00;99.90;;;;;;5033497;28;20075;-63
2023/03/03 04:49:18;;;;;;;6.75;4.75;;;20.00;99.90;;;;;;5033533;28;20029;-63
2023/03/03 04:51:44;;;;;;;9.70;4.80;;;20.00;99.90;;;;;;5033557;28;20037;-62
2023/03/03 04:54:10;;;;;;;6.82;4.80;;;20.00;99.90;;;;;;5032735;28;20044;-61
2023/03/03 04:56:35;;;;;;;7.18;4.85;;;19.90;99.90;;;;;;5033344;28;20053;-61
2023/03/03 05:01:40;;;;;;;8.88;5.05;;;19.90;99.90;;;;;;5032032;28;20057;-48
2023/03/03 05:04:06;;;;;;;7.28;4.68;;;19.90;99.90;;;;;;5033209;28;20108;-48
2023/03/03 05:06:32;;;;;;;5.45;3.67;;;19.90;99.90;;;;;;5033088;28;20052;-48
2023/03/03 05:08:58;;;;;;;7.53;4.72;;;19.90;99.90;;;;;;5033016;28;20513;-49
2023/03/03 05:11:25;;;;;;;8.63;4.55;;;19.90;99.90;;;;;;5032961;28;20124;-48
2023/03/03 05:13:52;;;;;;;7.68;4.75;;;19.90;99.90;;;;;;5015737;28;20412;-48
2023/03/03 05:16:18;;;;;;;7.65;4.78;;;19.90;99.90;;;;;;5032900;28;20109;-48
2023/03/03 05:18:44;;;;;;;5.15;3.85;;;19.90;99.90;;;;;;5033056;28;20064;-49
2023/03/03 05:21:11;;;;;;;7.50;4.50;;;19.90;99.90;;;;;;5032868;28;20025;-48
2023/03/03 05:23:36;;;;;;;6.45;4.10;;;19.80;99.90;;;;;;5032799;28;20036;-48
2023/03/03 05:26:03;;;;;;;9.07;4.30;;;19.90;99.90;;;;;;5032672;28;20029;-48
2023/03/03 05:28:28;;;;;;;6.25;4.22;;;19.80;99.90;;;;;;5014922;28;20125;-49
2023/03/03 05:30:54;;;;;;;5.70;4.32;;;19.80;99.90;;;;;;5032594;28;20442;-48
2023/03/03 05:33:20;;;;;;;7.85;3.40;;;19.80;99.90;;;;;;5032623;28;20109;-48
2023/03/03 05:35:46;;;;;;;5.90;3.75;;;19.80;99.90;;;;;;5014998;28;20029;-49
2023/03/03 05:38:12;;;;;;;6.63;4.13;;;19.80;99.90;;;;;;5015068;28;20029;-48
2023/03/03 05:40:38;;;;;;;5.50;3.92;;;19.80;99.90;;;;;;5032652;28;20025;-48
2023/03/03 05:43:04;;;;;;;7.18;4.55;;;19.80;99.90;;;;;;5032527;28;20029;-48
2023/03/03 05:45:29;;;;;;;6.85;4.82;;;19.80;99.90;;;;;;5032428;28;20150;-48
2023/03/03 05:47:55;;;;;;;5.40;4.03;;;19.80;99.90;;;;;;5032610;28;20100;-48
2023/03/03 05:50:23;;;;;;;7.70;4.10;;;19.80;99.90;;;;;;5032285;28;20502;-48
2023/03/03 05:52:52;;;;;;;6.55;3.53;;;19.80;99.90;;;;;;5032689;28;20025;-48
2023/03/03 05:55:19;;;;;;;5.38;3.90;;;19.80;99.90;;;;;;5014821;28;20100;-48
2023/03/03 05:57:44;;;;;;;5.93;3.75;;;19.70;99.90;;;;;;5032225;28;20040;-48
2023/03/03 06:00:12;;;;;;;6.05;3.95;;;19.70;99.90;;;;;;5032172;28;20053;-48
2023/03/03 06:02:38;;;;;;;6.25;3.88;;;19.70;99.90;;;;;;5030004;28;20143;-49
2023/03/03 06:05:04;;;;;;;4.63;3.22;;;19.70;99.90;;;;;;5032208;28;20033;-48
2023/03/03 06:07:30;;;;;;;4.63;3.53;;;19.70;99.90;;;;;;5032073;28;20095;-48
2023/03/03 06:09:56;;;;;;;4.78;3.15;;;19.70;99.90;;;;;;5032095;28;20030;-48
2023/03/03 06:12:22;;;;;;;5.70;3.80;;;19.60;99.90;;;;;;5031898;28;20034;-49
2023/03/03 06:14:48;;;;;;;5.32;3.55;;;19.70;99.90;;;;;;5014497;28;20026;-48
2023/03/03 06:17:13;;;;;;;5.15;3.58;;;19.60;99.90;;;;;;5032069;28;20023;-49
2023/03/03 06:19:40;;;;;;;5.93;4.13;;;19.60;99.90;;;;;;5032077;28;20022;-48
2023/03/03 06:22:07;;;;;;;8.63;3.92;;;19.60;99.90;;;;;;5031852;28;20037;-48
2023/03/03 06:24:33;;;;;;;5.90;3.60;;;19.60;99.90;;;;;;5031987;28;20057;-48
2023/03/03 06:27:00;;;;;;;5.43;3.53;;;19.60;99.90;;;;;;5029212;28;20550;-49
2023/03/03 06:29:27;;;;;;;6.95;3.60;;;19.60;99.90;;;;;;5030916;28;20075;-49
2023/03/03 06:31:52;;;;;;;5.18;3.33;;;19.60;99.90;;;;;;5030035;28;20036;-49
2023/03/03 06:34:19;;;;;;;5.75;3.65;;;19.60;99.90;;;;;;5031671;28;20033;-46
2023/03/03 06:36:45;;;;;;;6.60;3.47;;;19.60;99.90;;;;;;5031903;28;20467;-47
2023/03/03 06:39:11;;;;;;;9.45;4.18;;;19.60;99.90;;;;;;5031814;28;20022;-47
2023/03/03 06:41:37;;;;;;;5.32;3.50;;;19.50;99.90;;;;;;5030766;28;20395;-48
2023/03/03 06:44:03;;;;;;;4.38;3.10;;;19.50;99.90;;;;;;5031880;28;20016;-47
2023/03/03 06:46:29;;;;;;;6.88;3.20;;;19.50;99.90;;;;;;5031839;28;20031;-48
2023/03/03 06:48:54;;;;;;;4.95;2.67;;;19.50;99.90;;;;;;5031647;28;20379;-48
2023/03/03 06:51:40;;;;;;;5.88;3.33;;;19.50;99.90;;;;;;5031935;28;20033;-48
2023/03/03 06:54:26;;;;;;;5.85;3.50;;;19.50;99.90;;;;;;5031487;28;20028;-48
2023/03/03 06:56:55;;;;;;;4.63;3.17;;;19.50;99.90;;;;;;5031812;28;20025;-48
2023/03/03 06:59:21;;;;;;;5.00;3.45;;;19.50;99.90;;;;;;5031645;28;20030;-47
2023/03/03 07:01:49;;;;;;;5.00;3.33;;;19.50;99.90;;;;;;5031510;28;20120;-47
2023/03/03 07:04:28;;;;;;;4.47;3.03;;;19.40;99.90;;;;;;5030715;28;20030;-47
2023/03/03 07:06:57;;;;;;;5.22;3.20;;;19.40;99.90;;;;;;5013234;28;20128;-49
2023/03/03 07:09:29;;;;;;;4.63;3.25;;;19.40;99.90;;;;;;5031431;28;20018;-48
2023/03/03 07:12:04;;;;;;;4.32;2.90;;;19.40;99.90;;;;;;5030961;28;20136;-47
2023/03/03 07:14:34;;;;;;;5.03;3.28;;;19.40;99.90;;;;;;5030967;28;20028;-49
2023/03/03 07:17:03;;;;;;;4.78;3.55;;;19.40;99.90;;;;;;5029106;28;20017;-48
2023/03/03 07:19:34;;;;;;;5.30;3.30;;;19.40;99.90;;;;;;5034712;28;20064;-48
2023/03/03 07:22:17;;;;;;;7.30;3.30;;;19.40;99.90;;;;;;5034683;28;20044;-48
2023/03/03 07:24:59;;;;;;;4.57;3.10;;;19.40;99.90;;;;;;5034936;28;20056;-48
2023/03/03 07:27:28;;;;;;;4.53;3.13;;;19.40;99.90;;;;;;5034290;28;20025;-49
2023/03/03 07:30:15;;;;;;;11.80;3.80;;;19.40;99.90;;;;;;5035217;28;20033;-48
2023/03/03 07:32:45;;;;;;;9.93;3.22;;;19.40;99.90;;;;;;5034406;28;20067;-48
2023/03/03 07:35:36;;;;;;;7.68;2.95;;;19.40;99.90;;;;;;5034222;28;20100;-48
2023/03/03 07:38:10;;;;;;;5.30;3.42;;;19.50;99.90;;;;;;5034116;28;20479;-48
2023/03/03 07:40:37;;;;;;;8.30;4.07;;;19.50;99.90;;;;;;5033983;28;20033;-48
2023/03/03 07:43:37;;;;;;;8.57;3.97;;;19.50;99.90;;;;;;5034367;28;20021;-49
2023/03/03 07:46:24;;;;;;;5.13;3.30;;;19.50;99.90;;;;;;5030112;28;20021;-48
2023/03/03 07:48:51;;;;;;;10.68;2.83;;;19.50;99.90;;;;;;5033790;28;20545;-48
2023/03/03 07:51:35;;;;;;;6.47;3.35;;;19.60;99.90;;;;;;5016166;28;20041;-49
2023/03/03 07:54:27;;;;;;;8.65;3.30;;;19.60;99.90;;;;;;5032770;28;20029;-48
2023/03/03 07:57:13;;;;;;;5.50;3.03;;;19.60;99.90;;;;;;5022713;28;20384;-48
2023/03/03 07:59:47;;;;;;;9.68;3.90;;;19.60;99.90;;;;;;5023382;28;20037;-48
2023/03/03 08:02:59;;;;;;;8.10;3.92;;;19.60;99.90;;;;;;5009257;28;20093;-48
2023/03/03 08:05:35;;;;;;;8.32;3.83;;;19.60;99.90;;;;;;5011473;28;20042;-48
2023/03/03 08:08:28;;;;;;;9.95;3.88;;;19.70;99.90;;;;;;5027909;28;20064;-48
2023/03/03 08:10:56;;;;;;;8.27;3.75;;;19.70;99.90;;;;;;5020784;28;20107;-48
2023/03/03 08:13:27;;;;;;;13.02;4.03;;;19.70;99.90;;;;;;5021949;28;20025;-48
2023/03/03 08:16:03;;;;;;;7.25;4.28;;;19.80;99.90;;;;;;5027278;28;20100;-48
2023/03/03 08:18:41;;;;;;;9.25;4.60;;;19.70;99.90;;;;;;5025611;28;20044;-48
2023/03/03 08:21:13;;;;;;;9.52;4.95;;;19.80;99.90;;;;;;5030327;28;20574;-47
2023/03/03 08:23:39;;;;;;;8.05;4.20;;;19.80;99.90;;;;;;5013061;28;20029;-48
2023/03/03 08:26:06;;;;;;;7.13;4.70;;;19.80;99.90;;;;;;5030154;28;20021;-48
2023/03/03 08:28:31;;;;;;;8.88;4.78;;;19.90;99.90;;;;;;5018187;28;20026;-48
2023/03/03 08:30:57;;;;;;;7.30;4.47;;;19.90;99.90;;;;;;5019106;28;20045;-48
2023/03/03 08:33:23;;;;;;;7.82;4.93;;;19.90;99.90;;;;;;5013279;28;20022;-49
2023/03/03 08:35:49;;;;;;;8.45;5.00;;;19.90;99.90;;;;;;5012815;28;20037;-48
2023/03/03 08:38:18;;;;;;;7.00;4.13;;;19.90;99.90;;;;;;5013145;28;20033;-48
2023/03/03 08:40:44;;;;;;;11.07;5.63;;;19.90;99.90;;;;;;5011741;28;20022;-48
2023/03/03 08:43:12;;;;;;;6.72;4.97;;;19.90;99.90;;;;;;5020382;28;20063;-49
2023/03/03 08:45:38;;;;;;;8.82;5.55;;;20.00;99.90;;;;;;5023066;28;20040;-49
2023/03/03 08:48:04;;;;;;;11.20;5.45;;;20.00;99.90;;;;;;5013175;28;20109;-48
2023/03/03 08:50:30;;;;;;;10.48;6.10;;;20.00;99.90;;;;;;5029694;28;20028;-48
2023/03/03 08:52:56;;;;;;;13.07;5.70;;;20.00;99.90;;;;;;5016559;28;20026;-49
2023/03/03 08:55:21;;;;;;;10.95;5.70;;;20.10;99.90;;;;;;5022731;28;20033;-48
2023/03/03 08:57:47;;;;;;;11.00;6.25;;;20.10;99.90;;;;;;5023994;28;20109;-48
2023/03/03 09:00:15;;;;;;;12.13;6.45;;;20.10;99.90;;;;;;5025107;28;20046;-48
2023/03/03 09:02:42;;;;;;;11.75;6.22;;;20.10;99.90;;;;;;5029522;28;20029;-48
2023/03/03 09:05:08;;;;;;;12.65;6.43;;;20.10;99.90;;;;;;5019114;28;20022;-48
2023/03/03 09:07:34;;;;;;;12.77;6.05;;;20.10;99.90;;;;;;5015576;28;20088;-47
2023/03/03 09:10:00;;;;;;;11.18;5.03;;;20.20;99.90;;;;;;5011225;28;20033;-48
2023/03/03 09:12:35;;;;;;;13.15;5.95;;;20.10;99.90;;;;;;5012656;28;20034;-48
2023/03/03 09:15:34;;;;;;;13.75;5.95;;;20.20;99.90;;;;;;5017632;28;20030;-48
2023/03/03 09:18:13;;;;;;;9.18;5.40;;;20.20;99.90;;;;;;5004550;28;20571;-48
2023/03/03 09:20:50;;;;;;;9.75;4.90;;;20.20;99.90;;;;;;5029471;28;20026;-49
2023/03/03 09:23:22;;;;;;;11.60;6.40;;;20.20;99.90;;;;;;5024934;28;20087;-48
2023/03/03 09:25:49;;;;;;;25.70;5.22;;;20.20;99.90;;;;;;5015655;28;20407;-48
2023/03/03 09:28:30;;;;;;;7.77;4.93;;;20.30;99.90;;;;;;5024409;28;20022;-48
2023/03/03 09:30:59;;;;;;;7.15;4.55;;;20.30;99.90;;;;;;5010616;28;20295;-48
2023/03/03 09:33:42;;;;;;;9.23;4.72;;;20.30;99.90;;;;;;5023176;28;20033;-48
2023/03/03 09:36:36;;;;;;;8.35;4.45;;;20.30;99.90;;;;;;5029323;28;20049;-48
2023/03/03 09:39:17;;;;;;;9.73;4.97;;;20.40;99.90;;;;;;5006950;28;20041;-49
2023/03/03 09:42:07;;;;;;;8.93;4.53;;;20.40;99.90;;;;;;5007240;28;20030;-48
2023/03/03 09:44:56;;;;;;;9.13;4.53;;;20.40;99.90;;;;;;5013686;28;20025;-49
2023/03/03 09:47:41;;;;;;;9.52;3.20;;;20.40;99.90;;;;;;5022729;28;20041;-49
2023/03/03 09:50:15;;;;;;;6.97;3.58;;;20.40;99.90;;;;;;5026297;28;20018;-48
2023/03/03 09:53:12;;;;;;;7.07;4.20;;;20.50;99.90;;;;;;5020637;28;20034;-49
2023/03/03 09:55:43;;;;;;;6.60;4.03;;;20.50;99.90;;;;;;5021687;28;20033;-49
2023/03/03 09:58:33;;;;;;;7.22;3.70;;;20.50;99.90;;;;;;5022248;28;20498;-48
2023/03/03 10:01:05;;;;;;;5.97;3.40;;;20.50;99.90;;;;;;5015573;28;20499;-47
2023/03/03 10:03:45;;;;;;;6.82;3.92;;;20.60;99.90;;;;;;5022385;28;20053;-47
2023/03/03 10:06:17;;;;;;;11.82;4.65;;;20.60;99.90;;;;;;5002419;28;20026;-47
2023/03/03 10:08:51;;;;;;;11.88;4.35;;;20.70;99.90;;;;;;5021450;28;20032;-47
2023/03/03 10:11:21;;;;;;;8.18;4.40;;;20.70;99.90;;;;;;5025965;28;20037;-49
2023/03/03 10:14:20;;;;;;;11.15;4.97;;;20.70;99.90;;;;;;5021256;28;20050;-48
2023/03/03 10:17:22;;;;;;;7.38;5.00;;;20.80;99.90;;;;;;5019033;28;20037;-47
2023/03/03 10:20:42;;;;;;;7.15;4.20;;;20.80;99.90;;;;;;5010538;28;20474;-47
2023/03/03 10:23:13;;;;;;;8.57;4.63;;;20.90;99.90;;;;;;4932837;29;20032;-48
2023/03/03 10:25:42;;;;;;;8.93;4.43;;;20.90;99.90;;;;;;5020099;28;20034;-47
2023/03/03 10:28:34;;;;;;;12.77;5.07;;;21.00;99.90;;;;;;5027696;28;20034;-48
2023/03/03 10:31:19;;;;;;;11.85;4.15;;;21.00;99.90;;;;;;5025665;28;20025;-48
2023/03/03 10:34:30;;;;;;;10.20;4.72;;;21.00;99.90;;;;;;5028266;28;20078;-48
2023/03/03 10:37:21;;;;;;;7.15;4.90;;;21.10;99.90;;;;;;4947935;29;20039;-48
2023/03/03 10:40:22;;;;;;;16.40;4.97;;;21.10;99.90;;;;;;4945439;29;20404;-49
2023/03/03 10:43:06;;;;;;;7.75;4.72;;;21.10;99.90;;;;;;4914428;29;20394;-48
2023/03/03 10:46:05;;;;;;;7.30;4.10;;;21.20;99.90;;;;;;5013280;28;20033;-48
2023/03/03 10:48:47;;;;;;;7.78;4.05;;;21.20;99.90;;;;;;5021438;28;20060;-48
2023/03/03 10:51:48;;;;;;;9.93;4.53;;;21.30;99.90;;;;;;5022278;28;20034;-48
2023/03/03 10:54:21;;;;;;;12.63;4.13;;;21.30;99.90;;;;;;4987327;28;20065;-48
2023/03/03 10:57:02;;;;;;;9.60;4.72;;;21.40;99.90;;;;;;5026316;28;20026;-48
2023/03/03 10:59:40;;;;;;;10.18;4.60;;;21.40;99.90;;;;;;5026748;28;20100;-48
2023/03/03 11:02:25;;;;;;;6.47;4.43;;;21.50;99.90;;;;;;5026435;28;20120;-47
2023/03/03 11:05:14;;;;;;;9.88;4.65;;;21.50;99.90;;;;;;5021352;28;20028;-48
2023/03/03 11:08:02;;;;;;;56.22;5.03;;;21.50;99.90;;;;;;5013350;28;20048;-48
2023/03/03 11:10:59;;;;;;;8.07;4.30;;;21.60;99.90;;;;;;5014347;28;20067;-47
2023/03/03 11:13:34;;;;;;;9.38;3.60;;;21.60;99.90;;;;;;5017758;28;20068;-49
2023/03/03 11:16:22;;;;;;;7.47;3.80;;;21.60;99.90;;;;;;5014730;28;20014;-48
2023/03/03 11:19:00;;;;;;;8.30;4.28;;;21.60;99.90;;;;;;5014365;28;20064;-48
2023/03/03 11:21:41;;;;;;;7.15;4.10;;;21.70;99.90;;;;;;5023050;28;20010;-47
2023/03/03 11:24:12;;;;;;;5.85;4.00;;;21.70;99.90;;;;;;5020349;28;20026;-48
2023/03/03 11:26:50;;;;;;;8.20;4.30;;;21.70;99.90;;;;;;5014360;28;20033;-47
2023/03/03 11:29:16;;;;;;;7.47;4.40;;;21.80;99.90;;;;;;5019986;28;20022;-48
2023/03/03 11:31:52;;;;;;;7.03;4.10;;;21.80;99.90;;;;;;5015520;28;20042;-47
2023/03/03 11:34:20;;;;;;;10.60;4.47;;;21.80;99.90;;;;;;5028872;28;20034;-48
2023/03/03 11:37:05;;;;;;;9.55;4.57;;;21.80;99.90;;;;;;5021690;28;20036;-48
2023/03/03 11:39:32;;;;;;;8.38;4.45;;;21.90;99.90;;;;;;5014181;28;20041;-48
2023/03/03 11:42:23;;;;;;;9.20;4.63;;;21.90;99.90;;;;;;4996760;28;20069;-47
2023/03/03 11:45:13;;;;;;;7.68;4.45;;;21.90;99.90;;;;;;5028803;28;20041;-48
2023/03/03 11:47:46;;;;;;;6.97;4.78;;;21.90;99.90;;;;;;5030498;28;20033;-47
2023/03/03 11:50:41;;;;;;;12.88;5.18;;;22.00;99.90;;;;;;5030426;28;20084;-47
2023/03/03 11:53:46;;;;;;;11.32;5.07;;;22.00;99.90;;;;;;5020946;28;20042;-47
2023/03/03 11:56:17;;;;;;;9.20;5.32;;;22.00;99.90;;;;;;4980662;28;20570;-47
2023/03/03 11:58:56;;;;;;;8.43;5.50;;;22.10;99.90;;;;;;5009066;28;20028;-49
2023/03/03 12:01:45;;;;;;;12.68;5.93;;;22.10;99.90;;;;;;5023339;28;20044;-48
2023/03/03 12:04:17;;;;;;;8.20;5.32;;;22.10;99.90;;;;;;5012058;28;20467;-48
2023/03/03 12:07:07;;;;;;;8.23;3.50;;;22.20;99.90;;;;;;5028807;28;20043;-49
2023/03/03 12:09:58;;;;;;;6.28;3.20;;;22.20;99.90;;;;;;5013590;28;20124;-47
2023/03/03 12:12:28;;;;;;;7.20;3.20;;;22.30;99.90;;;;;;5028396;28;20046;-47
2023/03/03 12:15:15;;;;;;;5.03;2.65;;;22.30;99.90;;;;;;5030098;28;20589;-47
2023/03/03 12:18:18;;;;;;;20.63;5.57;;;22.30;99.90;;;;;;5031109;28;20025;-47
2023/03/03 12:21:01;;;;;;;11.23;3.28;;;22.30;99.90;;;;;;5014012;28;20037;-45
2023/03/03 12:23:39;;;;;;;9.00;3.83;;;22.30;99.90;;;;;;5029888;28;20025;-52
2023/03/03 12:26:11;;;;;;;12.95;5.40;;;22.30;99.90;;;;;;5013558;28;20037;-49
2023/03/03 12:28:44;;;;;;;9.32;4.30;;;22.30;99.90;;;;;;5013111;28;20034;-45
2023/03/03 12:31:53;;;;;;;8.38;2.83;;;22.20;99.90;;;;;;5010414;28;20033;-45
2023/03/03 12:34:38;;;;;;;3.88;2.10;;;22.20;99.90;;;;;;5028905;28;20519;-44
2023/03/03 12:37:14;;;;;;;8.90;2.83;;;22.20;99.90;;;;;;5015715;28;20041;-45
2023/03/03 12:40:01;;;;;;;6.93;3.00;;;22.10;99.90;;;;;;5028254;28;20022;-44
2023/03/03 12:42:36;;;;;;;;;;;22.10;99.90;;;;;;5028428;28;20029;-44
2023/03/03 12:45:28;;;;;;;14.82;8.45;;;22.10;99.90;;;;;;5029297;28;19908;-45
2023/03/03 12:48:28;;;;;;;10.63;6.70;;;22.00;99.90;;;;;;5030030;28;20399;-45
2023/03/03 12:51:06;;;;;;;12.75;5.47;;;21.90;99.90;;;;;;5028946;28;20045;-45
2023/03/03 12:54:14;;;;;;;8.38;5.68;;;21.80;99.90;;;;;;5024520;28;20048;-46
2023/03/03 12:56:46;;;;;;;14.98;6.45;;;21.80;99.90;;;;;;5015840;28;20585;-45
2023/03/03 12:59:19;;;;;;;14.07;6.75;;;21.80;99.90;;;;;;5010681;28;20367;-45
2023/03/03 13:02:07;;;;;;;23.25;11.45;;;21.90;99.90;;;;;;5024650;28;20034;-45
2023/03/03 13:04:39;;;;;;;21.10;13.02;;;21.90;99.90;;;;;;5027884;28;20033;-44
2023/03/03 13:07:16;;;;;;;28.98;11.70;;;22.00;99.90;;;;;;5027184;28;20057;-44
2023/03/03 13:10:09;;;;;;;24.60;17.30;;;22.00;99.90;;;;;;5028861;28;20087;-46
2023/03/03 13:13:06;;;;;;;21.15;14.55;;;22.00;99.90;;;;;;5020407;28;20041;-44
2023/03/03 13:15:52;;;;;;;;;;;22.00;99.90;;;;;;5014300;28;20045;-45
2023/03/03 13:18:49;;;;;;;24.73;16.40;;;22.00;99.90;;;;;;5028120;28;19916;-45
2023/03/03 13:21:48;;;;;;;28.02;18.85;;;22.00;99.90;;;;;;5019630;28;20057;-45